Portada
METAR-TAF:

METAR-TAF

Aeropuertos :

Aeropuerto de Srinagar

Srinagar, India

latitud: 33-59-14N, longitud: 074-46-27E, altitud: 1655 m

METAR: falta

Hora: 05:45 (00:15 UTC)

Pronóstico

El informe se hizo hace 8 horas y 45 minutos, a las 15:30 UTC
Pronóstico válido del 02 a las 18 UTC al 03 a las 06 UTC
Viento 3 kt con dirección variable
Visibilidad: 6000 m
Escasas nubes a una altura de 2500 ft
Nubes dispersas a una altura de 20000 ft

TAF: VISR 021530Z 0218/0306 VRB03KT 6000 FEW025 SCT200

Observaciones y pronósticos meteorológicos de más de 4000 aeropuertos (mensajes METAR y TAF).

Los puntos amarillos y rojos representan las estaciones disponibles.

Ponga el ratón en el punto deseado para ver el nombre de la estación.

Haga clic para ver las observaciones y los pronósticos meteorológicos.

Para cambiar el mapa : haga clic en los botones verdes con una cruz de color negro para hacer un zoom, en el botón verde con un guión para alejar o en las flechas verdes para mapas adyacentes.


METAR-TAF: